Quamba, Minnesota
Current Conditions -  °F | °C
As of 1:20 PM on Sunday 23 Nov 2014 (Local Time) from KJMR Reporting Station
Light Rain Light Rain  
Wind Chill:   Ceiling: 1000
Heat Index:   Visibility: 5mi
Dew Point:   Wind: 0mph
Humidity: 93%   Direction: NA
Pressure: 29.42"   Gusts: NA
Location:  45.9652°N, 93.2874°W
Report Text: KJMR 231920Z AUTO 00000KT 5SM -RA SCT006 BKN010 OVC050 02/01 A2942 RMK AO2
Loading
Personal Weather Stations






























Interactive Weather Map New forecast layout! Learn more

10-Day Weather Forecast

Advertisements
Track Severe Weather on mobile